Time;durP1;ratioP1;P1;durP2;ratioP2;P2;SDS_P1;SDS_P2;PMS_P1;PMS_P2;Temp;Humidity;BMP_temperature;BMP_pressure;BME280_temperature;BME280_humidity;BME280_pressure;Samples;Min_cycle;Max_cycle;Signal;HPM_P1;HPM_P2
2023/08/26 00:00:20;;;;;;;10.53;5.53;;;17.40;99.90;;;;;;5158625;27;20081;-83
2023/08/26 00:02:46;;;;;;;6.33;5.13;;;17.30;99.90;;;;;;5158529;27;20516;-83
2023/08/26 00:05:12;;;;;;;9.40;5.53;;;17.30;99.90;;;;;;5157968;27;20506;-83
2023/08/26 00:07:37;;;;;;;9.63;5.10;;;17.30;99.90;;;;;;5139993;27;20055;-83
2023/08/26 00:10:03;;;;;;;6.70;4.87;;;17.30;99.90;;;;;;5158188;27;20120;-83
2023/08/26 00:12:29;;;;;;;6.57;4.80;;;17.30;99.90;;;;;;5140051;27;20043;-83
2023/08/26 00:14:55;;;;;;;7.87;5.10;;;17.20;99.90;;;;;;5139699;27;20052;-83
2023/08/26 00:17:20;;;;;;;7.13;4.60;;;17.20;99.90;;;;;;5158045;27;20107;-83
2023/08/26 00:19:46;;;;;;;7.93;4.67;;;17.10;99.90;;;;;;5157969;27;20091;-83
2023/08/26 00:22:12;;;;;;;7.17;4.77;;;17.10;99.90;;;;;;5157719;27;20046;-83
2023/08/26 00:24:37;;;;;;;6.43;4.37;;;17.10;99.90;;;;;;5139430;27;20074;-83
2023/08/26 00:27:03;;;;;;;8.43;4.73;;;17.00;99.90;;;;;;5157690;27;20050;-83
2023/08/26 00:29:29;;;;;;;7.57;4.13;;;17.10;99.90;;;;;;5157999;27;20463;-83
2023/08/26 00:31:55;;;;;;;7.40;4.27;;;17.00;99.90;;;;;;5157484;27;20067;-83
2023/08/26 00:34:20;;;;;;;9.47;4.70;;;17.00;99.90;;;;;;5157529;27;20050;-83
2023/08/26 00:36:46;;;;;;;8.73;4.27;;;17.00;99.90;;;;;;5139430;27;20049;-83
2023/08/26 00:39:12;;;;;;;7.00;3.73;;;16.90;99.90;;;;;;5157428;27;20529;-83
2023/08/26 00:41:38;;;;;;;7.10;4.10;;;16.90;99.90;;;;;;5157715;27;20047;-83
2023/08/26 00:44:03;;;;;;;8.03;4.10;;;16.90;99.90;;;;;;5139061;27;20054;-83
2023/08/26 00:46:29;;;;;;;8.00;3.67;;;16.90;99.90;;;;;;5157430;27;20042;-83
2023/08/26 00:48:55;;;;;;;9.67;4.00;;;16.90;99.90;;;;;;5138973;27;20043;-82
2023/08/26 00:51:21;;;;;;;9.03;4.03;;;16.90;99.90;;;;;;5157480;27;20053;-83
2023/08/26 00:53:48;;;;;;;9.27;3.90;;;16.80;99.90;;;;;;5121986;27;20053;-83
2023/08/26 00:56:14;;;;;;;7.80;3.87;;;16.80;99.90;;;;;;5138480;27;20838;-83
2023/08/26 00:58:41;;;;;;;8.00;4.07;;;16.80;99.90;;;;;;5138905;27;20043;-83
2023/08/26 01:01:07;;;;;;;7.40;3.73;;;16.80;99.90;;;;;;5138593;27;20486;-83
2023/08/26 01:03:33;;;;;;;7.83;3.80;;;16.70;99.90;;;;;;5156236;27;20125;-83
2023/08/26 01:05:59;;;;;;;6.97;3.50;;;16.70;99.90;;;;;;5137506;27;20175;-83
2023/08/26 01:08:26;;;;;;;9.80;3.90;;;16.70;99.90;;;;;;5157165;27;20078;-82
2023/08/26 01:11:09;;;;;;;7.30;3.93;;;16.60;99.90;;;;;;5157001;27;20455;-82
2023/08/26 01:14:13;;;;;;;8.67;4.43;;;16.60;99.90;;;;;;5138683;27;20398;-82
2023/08/26 01:16:40;;;;;;;11.03;4.53;;;16.60;99.90;;;;;;5157268;27;20042;-83
2023/08/26 01:19:15;;;;;;;8.50;4.17;;;16.50;99.90;;;;;;5138126;27;20506;-82
2023/08/26 01:21:46;;;;;;;9.33;4.97;;;16.50;99.90;;;;;;5158207;27;20039;-83
2023/08/26 01:24:12;;;;;;;7.57;4.80;;;16.50;99.90;;;;;;5156728;27;20051;-83
2023/08/26 01:26:38;;;;;;;9.73;4.83;;;16.50;99.90;;;;;;5156618;27;20038;-83
2023/08/26 01:29:04;;;;;;;10.20;5.23;;;16.50;99.90;;;;;;5156386;27;20102;-82
2023/08/26 01:31:31;;;;;;;7.47;5.00;;;16.40;99.90;;;;;;5156696;27;20039;-83
2023/08/26 01:34:00;;;;;;;8.60;5.13;;;16.30;99.90;;;;;;5156602;27;20054;-83
2023/08/26 01:36:30;;;;;;;7.80;5.30;;;16.30;99.90;;;;;;5138276;27;20047;-82
2023/08/26 01:38:57;;;;;;;7.93;5.33;;;16.20;99.90;;;;;;5138013;27;20053;-82
2023/08/26 01:41:24;;;;;;;8.93;5.30;;;16.20;99.90;;;;;;5156070;27;20039;-82
2023/08/26 01:43:50;;;;;;;9.13;5.53;;;16.20;99.90;;;;;;5156351;27;20115;-82
2023/08/26 01:46:16;;;;;;;7.67;4.80;;;16.20;99.90;;;;;;5137587;27;20466;-83
2023/08/26 01:48:42;;;;;;;8.60;4.80;;;16.20;99.90;;;;;;5156419;27;20055;-83
2023/08/26 01:51:08;;;;;;;5.47;4.27;;;16.10;99.90;;;;;;5156069;27;20390;-83
2023/08/26 01:53:34;;;;;;;7.10;4.70;;;16.10;99.90;;;;;;5156265;27;20431;-83
2023/08/26 01:56:00;;;;;;;9.33;5.17;;;16.00;99.90;;;;;;5156195;27;20046;-83
2023/08/26 01:58:26;;;;;;;7.60;5.13;;;16.00;99.90;;;;;;5120410;27;20397;-83
2023/08/26 02:00:52;;;;;;;8.20;5.63;;;16.00;99.90;;;;;;5156106;27;20106;-83
2023/08/26 02:03:17;;;;;;;10.83;6.07;;;16.00;99.90;;;;;;5155807;27;20117;-83
2023/08/26 02:05:43;;;;;;;7.70;5.07;;;15.90;99.90;;;;;;5155802;27;20108;-83
2023/08/26 02:08:09;;;;;;;7.17;4.97;;;15.90;99.90;;;;;;5155178;27;20062;-82
2023/08/26 02:10:35;;;;;;;8.83;5.07;;;15.90;99.90;;;;;;5137572;27;20046;-82
2023/08/26 02:13:01;;;;;;;7.03;5.33;;;15.80;99.90;;;;;;5120478;27;20047;-82
2023/08/26 02:15:26;;;;;;;8.17;5.10;;;15.80;99.90;;;;;;5136849;27;20108;-82
2023/08/26 02:17:52;;;;;;;7.23;5.53;;;15.70;99.90;;;;;;5137422;27;20054;-83
2023/08/26 02:20:18;;;;;;;9.10;5.50;;;15.70;99.90;;;;;;5136970;27;20475;-82
2023/08/26 02:22:44;;;;;;;6.97;5.23;;;15.70;99.90;;;;;;5155911;27;20351;-83
2023/08/26 02:25:09;;;;;;;9.43;5.37;;;15.70;99.90;;;;;;5119850;27;20492;-82
2023/08/26 02:27:35;;;;;;;9.60;5.60;;;15.70;99.90;;;;;;5155859;27;20123;-82
2023/08/26 02:30:02;;;;;;;6.43;4.83;;;15.60;99.90;;;;;;5155457;27;20050;-82
2023/08/26 02:32:28;;;;;;;8.33;5.63;;;15.70;99.90;;;;;;5155418;27;20047;-82
2023/08/26 02:34:54;;;;;;;8.43;5.60;;;15.60;99.90;;;;;;5137128;27;20042;-82
2023/08/26 02:37:21;;;;;;;7.47;5.50;;;15.60;99.90;;;;;;5155048;27;20094;-82
2023/08/26 02:39:47;;;;;;;8.43;4.83;;;15.60;99.90;;;;;;5137254;27;20047;-83
2023/08/26 02:42:12;;;;;;;8.73;5.80;;;15.60;99.90;;;;;;5154963;27;20069;-82
2023/08/26 02:44:38;;;;;;;7.27;5.37;;;15.50;99.90;;;;;;5137352;27;20046;-82
2023/08/26 02:47:04;;;;;;;10.67;5.13;;;15.50;99.90;;;;;;5155191;27;20492;-83
2023/08/26 02:49:29;;;;;;;7.33;4.87;;;15.50;99.90;;;;;;5154925;27;20050;-83
2023/08/26 02:51:55;;;;;;;9.30;5.63;;;15.50;99.90;;;;;;5155098;27;20042;-82
2023/08/26 02:54:21;;;;;;;7.47;5.50;;;15.40;99.90;;;;;;5136325;27;20047;-82
2023/08/26 02:56:46;;;;;;;8.27;5.23;;;15.40;99.90;;;;;;5136803;27;20134;-83
2023/08/26 02:59:12;;;;;;;8.63;6.13;;;15.40;99.90;;;;;;5154732;27;20491;-82
2023/08/26 03:01:39;;;;;;;8.33;5.83;;;15.40;99.90;;;;;;5136728;27;20050;-82
2023/08/26 03:04:05;;;;;;;7.77;5.93;;;15.40;99.90;;;;;;5155092;27;20046;-82
2023/08/26 03:06:30;;;;;;;9.97;6.33;;;15.50;99.90;;;;;;5154342;27;20497;-81
2023/08/26 03:08:56;;;;;;;7.97;5.87;;;15.50;99.90;;;;;;5136611;27;20099;-82
2023/08/26 03:11:22;;;;;;;6.97;5.33;;;15.50;99.90;;;;;;5136300;27;20394;-81
2023/08/26 03:13:49;;;;;;;8.73;6.30;;;15.50;99.90;;;;;;5154789;27;20125;-82
2023/08/26 03:16:16;;;;;;;6.53;5.30;;;15.50;99.90;;;;;;5154961;27;20492;-81
2023/08/26 03:18:42;;;;;;;7.70;5.50;;;15.50;99.90;;;;;;5155245;27;20050;-81
2023/08/26 03:21:09;;;;;;;6.57;5.47;;;15.50;99.90;;;;;;5154683;27;20133;-82
2023/08/26 03:23:35;;;;;;;8.83;5.30;;;15.50;99.90;;;;;;5154592;27;20080;-82
2023/08/26 03:26:01;;;;;;;8.10;5.77;;;15.60;99.90;;;;;;5135956;27;20042;-82
2023/08/26 03:28:27;;;;;;;10.83;5.40;;;15.60;99.90;;;;;;5139179;27;20042;-82
2023/08/26 03:30:53;;;;;;;8.53;5.70;;;15.60;99.90;;;;;;5140522;27;20099;-83
2023/08/26 03:33:19;;;;;;;8.63;5.90;;;15.60;99.90;;;;;;5158600;27;20042;-81
2023/08/26 03:35:44;;;;;;;10.70;6.20;;;15.60;99.90;;;;;;5158927;27;20123;-81
2023/08/26 03:38:10;;;;;;;9.17;5.13;;;15.60;99.90;;;;;;5158892;27;20363;-81
2023/08/26 03:40:42;;;;;;;7.63;5.30;;;15.70;99.90;;;;;;5158649;27;20053;-81
2023/08/26 03:43:08;;;;;;;8.43;5.13;;;15.70;99.90;;;;;;5158763;27;20508;-82
2023/08/26 03:45:33;;;;;;;7.43;4.70;;;15.70;99.90;;;;;;5139999;27;20034;-81
2023/08/26 03:47:59;;;;;;;8.03;5.53;;;15.70;99.90;;;;;;5158753;27;20042;-82
2023/08/26 03:50:25;;;;;;;7.50;4.93;;;15.70;99.90;;;;;;5158334;27;20046;-81
2023/08/26 03:52:50;;;;;;;6.27;4.53;;;15.70;99.90;;;;;;5158583;27;20131;-82
2023/08/26 03:55:16;;;;;;;8.23;5.00;;;15.70;99.90;;;;;;5158402;27;20470;-80
2023/08/26 03:57:42;;;;;;;8.03;4.77;;;15.70;99.90;;;;;;5139969;27;20054;-82
2023/08/26 04:00:08;;;;;;;5.90;4.07;;;15.70;99.90;;;;;;5123090;27;20051;-82
2023/08/26 04:02:33;;;;;;;5.50;4.00;;;15.70;99.90;;;;;;5158196;27;20086;-81
2023/08/26 04:04:59;;;;;;;9.37;4.60;;;15.70;99.90;;;;;;5158711;27;20198;-82
2023/08/26 04:07:25;;;;;;;6.17;4.27;;;15.70;99.90;;;;;;5157976;27;20058;-82
2023/08/26 04:09:51;;;;;;;6.07;3.97;;;15.70;99.90;;;;;;5158538;27;20517;-82
2023/08/26 04:12:16;;;;;;;7.07;4.40;;;15.80;99.90;;;;;;5158207;27;20528;-82
2023/08/26 04:14:42;;;;;;;9.40;4.23;;;15.80;99.90;;;;;;5139679;27;20441;-82
2023/08/26 04:17:08;;;;;;;8.20;3.77;;;15.80;99.90;;;;;;5158068;27;20047;-82
2023/08/26 04:19:33;;;;;;;6.90;3.90;;;15.80;99.90;;;;;;5157792;27;20479;-81
2023/08/26 04:22:03;;;;;;;6.13;4.00;;;15.80;99.90;;;;;;5139809;27;20454;-82
2023/08/26 04:24:31;;;;;;;7.47;3.90;;;15.90;99.90;;;;;;5139178;27;20042;-81
2023/08/26 04:26:57;;;;;;;8.17;4.37;;;15.90;99.90;;;;;;5157834;27;20046;-83
2023/08/26 04:29:22;;;;;;;6.30;3.60;;;15.90;99.90;;;;;;5139096;27;20035;-82
2023/08/26 04:31:48;;;;;;;6.77;4.00;;;15.90;99.90;;;;;;5158095;27;20070;-82
2023/08/26 04:34:14;;;;;;;7.90;4.20;;;16.00;99.90;;;;;;5157912;27;20042;-80
2023/08/26 04:36:39;;;;;;;6.63;3.70;;;16.00;99.90;;;;;;5138967;27;20049;-81
2023/08/26 04:39:10;;;;;;;9.00;4.23;;;16.00;99.90;;;;;;5121694;27;20043;-78
2023/08/26 04:41:38;;;;;;;5.33;3.30;;;16.00;99.90;;;;;;5157324;27;20046;-78
2023/08/26 04:44:05;;;;;;;7.00;3.97;;;15.90;99.90;;;;;;5139014;27;20401;-77
2023/08/26 04:46:31;;;;;;;6.93;3.80;;;15.90;99.90;;;;;;5138639;27;20043;-78
2023/08/26 04:48:57;;;;;;;5.60;3.67;;;15.90;99.90;;;;;;5157620;27;20054;-79
2023/08/26 04:51:23;;;;;;;7.30;3.87;;;15.80;99.90;;;;;;5138803;27;20078;-78
2023/08/26 04:53:49;;;;;;;7.20;4.43;;;15.80;99.90;;;;;;5157452;27;20089;-78
2023/08/26 04:56:15;;;;;;;8.30;3.80;;;15.80;99.90;;;;;;5138783;27;20078;-77
2023/08/26 04:58:40;;;;;;;8.10;3.67;;;15.70;99.90;;;;;;5156713;27;20066;-77
2023/08/26 05:01:06;;;;;;;6.77;3.90;;;15.70;99.90;;;;;;5139015;27;20089;-77
2023/08/26 05:03:32;;;;;;;7.43;3.30;;;15.70;99.90;;;;;;5138693;27;20388;-77
2023/08/26 05:05:58;;;;;;;6.27;3.83;;;15.60;99.90;;;;;;5156682;27;20121;-79
2023/08/26 05:08:23;;;;;;;7.43;4.20;;;15.60;99.90;;;;;;5156658;27;20046;-77
2023/08/26 05:10:49;;;;;;;8.40;4.60;;;15.60;99.90;;;;;;5157136;27;20434;-77
2023/08/26 05:13:15;;;;;;;6.53;4.10;;;15.50;99.90;;;;;;5138717;27;20046;-77
2023/08/26 05:15:40;;;;;;;10.70;4.77;;;15.60;99.90;;;;;;5138355;27;20043;-80
2023/08/26 05:18:06;;;;;;;9.27;4.77;;;15.50;99.90;;;;;;5157456;27;20137;-81
2023/08/26 05:20:32;;;;;;;9.33;4.37;;;15.50;99.90;;;;;;5156576;27;20092;-77
2023/08/26 05:22:58;;;;;;;10.00;5.27;;;15.60;99.90;;;;;;5156987;27;20427;-76
2023/08/26 05:25:24;;;;;;;8.90;5.40;;;15.50;99.90;;;;;;5138479;27;20479;-76
2023/08/26 05:27:49;;;;;;;7.90;5.10;;;15.60;99.90;;;;;;5156467;27;20133;-77
2023/08/26 05:30:15;;;;;;;8.17;4.87;;;15.60;99.90;;;;;;5121279;27;20046;-77
2023/08/26 05:32:41;;;;;;;9.10;4.60;;;15.60;99.90;;;;;;5156253;27;20466;-78
2023/08/26 05:35:07;;;;;;;8.27;4.83;;;15.60;99.90;;;;;;5138185;27;20095;-81
2023/08/26 05:37:32;;;;;;;9.47;4.90;;;15.70;99.90;;;;;;5156469;27;20221;-80
2023/08/26 05:39:58;;;;;;;6.47;4.20;;;15.70;99.90;;;;;;5156360;27;20175;-80
2023/08/26 05:42:24;;;;;;;6.37;3.80;;;15.70;99.90;;;;;;5156350;27;20047;-80
2023/08/26 05:44:49;;;;;;;9.00;3.90;;;15.70;99.90;;;;;;5156111;27;20555;-80
2023/08/26 05:47:15;;;;;;;9.17;4.30;;;15.70;99.90;;;;;;5156506;27;20043;-80
2023/08/26 05:49:41;;;;;;;5.73;3.00;;;15.70;99.90;;;;;;5137055;27;20046;-80
2023/08/26 05:52:07;;;;;;;5.97;2.77;;;15.70;99.90;;;;;;5156219;27;20049;-80
2023/08/26 05:54:33;;;;;;;5.77;2.50;;;15.70;99.90;;;;;;5155913;27;20043;-80
2023/08/26 05:56:59;;;;;;;4.90;2.60;;;15.70;99.90;;;;;;5156369;27;20050;-80
2023/08/26 05:59:24;;;;;;;5.53;2.00;;;15.70;99.90;;;;;;5156138;27;20382;-81
2023/08/26 06:01:50;;;;;;;4.30;2.20;;;15.70;99.90;;;;;;5155769;27;20047;-80
2023/08/26 06:04:16;;;;;;;5.00;1.97;;;15.80;99.90;;;;;;5137472;27;20122;-80
2023/08/26 06:06:41;;;;;;;6.27;2.30;;;15.70;99.90;;;;;;5116365;27;20479;-80
2023/08/26 06:09:09;;;;;;;3.47;1.80;;;15.70;99.90;;;;;;5135122;27;20130;-80
2023/08/26 06:11:35;;;;;;;3.50;1.70;;;15.80;99.90;;;;;;5134529;27;20502;-80
2023/08/26 06:14:01;;;;;;;4.97;1.80;;;15.80;99.90;;;;;;5135241;27;20099;-80
2023/08/26 06:16:26;;;;;;;4.80;1.83;;;15.80;99.90;;;;;;5135043;27;20429;-82
2023/08/26 06:18:52;;;;;;;3.17;1.60;;;15.90;99.90;;;;;;5133790;27;20051;-81
2023/08/26 06:21:18;;;;;;;5.27;1.53;;;15.90;99.90;;;;;;5135046;27;20039;-82
2023/08/26 06:23:43;;;;;;;4.23;1.87;;;16.00;99.90;;;;;;5134712;27;20139;-81
2023/08/26 06:26:09;;;;;;;4.53;1.87;;;16.00;99.90;;;;;;5133856;27;20576;-82
2023/08/26 06:28:35;;;;;;;4.47;1.80;;;16.00;99.90;;;;;;5134613;27;20086;-81
2023/08/26 06:31:01;;;;;;;5.00;2.37;;;16.00;99.90;;;;;;5133807;27;20542;-81
2023/08/26 06:33:27;;;;;;;6.83;2.50;;;16.00;99.90;;;;;;5134874;27;20043;-81
2023/08/26 06:35:53;;;;;;;5.87;2.57;;;16.00;99.90;;;;;;5134370;27;20040;-81
2023/08/26 06:38:19;;;;;;;4.90;2.93;;;16.00;99.90;;;;;;5134688;27;20118;-82
2023/08/26 06:40:53;;;;;;;5.53;3.30;;;16.00;99.90;;;;;;5134368;27;20469;-81
2023/08/26 06:43:19;;;;;;;5.18;2.70;;;16.00;99.90;;;;;;5133942;27;20119;-81
2023/08/26 06:45:44;;;;;;;8.20;3.83;;;16.10;99.90;;;;;;5134248;27;20047;-80
2023/08/26 06:48:10;;;;;;;7.23;4.00;;;16.10;99.90;;;;;;5134419;27;20078;-80
2023/08/26 06:50:36;;;;;;;7.17;4.10;;;16.20;99.90;;;;;;5116162;27;20055;-76
2023/08/26 06:53:02;;;;;;;6.70;4.93;;;16.30;99.90;;;;;;5134419;27;20390;-81
2023/08/26 06:55:27;;;;;;;9.10;5.13;;;16.30;99.90;;;;;;5134484;27;20134;-80
2023/08/26 06:57:53;;;;;;;12.73;6.10;;;16.30;99.90;;;;;;5133026;27;20039;-81
2023/08/26 07:00:19;;;;;;;9.67;6.30;;;16.40;99.90;;;;;;5133911;27;20398;-81
2023/08/26 07:02:44;;;;;;;11.47;7.03;;;16.50;99.90;;;;;;5134056;27;20047;-80
2023/08/26 07:05:10;;;;;;;10.80;7.83;;;16.60;99.90;;;;;;5133000;27;20066;-81
2023/08/26 07:07:36;;;;;;;9.80;6.90;;;17.30;99.90;;;;;;5145906;27;20089;-81
2023/08/26 07:10:03;;;;;;;12.63;7.13;;;18.30;99.90;;;;;;5154551;27;20478;-81
2023/08/26 07:12:30;;;;;;;11.63;6.20;;;19.60;99.90;;;;;;5154929;27;20043;-81
2023/08/26 07:14:56;;;;;;;11.13;6.73;;;20.60;99.90;;;;;;5154552;27;20451;-80
2023/08/26 07:17:21;;;;;;;11.10;7.10;;;21.10;99.90;;;;;;5154915;27;20038;-80
2023/08/26 07:19:47;;;;;;;10.87;6.90;;;21.50;99.90;;;;;;5154356;27;20407;-81
2023/08/26 07:22:13;;;;;;;11.90;6.23;;;21.70;99.90;;;;;;5136848;27;20133;-81
2023/08/26 07:24:38;;;;;;;10.57;7.03;;;21.40;99.90;;;;;;5154697;27;20050;-81
2023/08/26 07:27:04;;;;;;;11.23;7.37;;;21.00;99.90;;;;;;5154296;27;20038;-80
2023/08/26 07:29:34;;;;;;;10.63;7.50;;;20.80;99.90;;;;;;5154620;27;20043;-80
2023/08/26 07:32:00;;;;;;;10.73;7.23;;;21.00;99.90;;;;;;5154322;27;20125;-80
2023/08/26 07:34:25;;;;;;;10.20;6.90;;;21.60;99.90;;;;;;5154501;27;20129;-80
2023/08/26 07:36:52;;;;;;;11.23;6.80;;;22.30;99.90;;;;;;5154294;27;20099;-80
2023/08/26 07:39:18;;;;;;;10.63;5.87;;;23.00;99.90;;;;;;5154489;27;20047;-80
2023/08/26 07:41:44;;;;;;;11.60;7.67;;;23.00;99.90;;;;;;5136128;27;20050;-80
2023/08/26 07:44:10;;;;;;;10.87;7.60;;;22.70;99.90;;;;;;5154438;27;20080;-81
2023/08/26 07:46:35;;;;;;;10.40;7.17;;;22.30;99.90;;;;;;5154383;27;20042;-81
2023/08/26 07:49:01;;;;;;;10.13;7.33;;;22.40;99.90;;;;;;5154493;27;20047;-80
2023/08/26 07:51:27;;;;;;;10.53;7.30;;;23.20;99.90;;;;;;5154670;27;20078;-81
2023/08/26 07:53:52;;;;;;;10.07;7.03;;;23.60;99.90;;;;;;5154093;27;20125;-80
2023/08/26 07:56:18;;;;;;;9.70;7.50;;;23.60;99.90;;;;;;5135901;27;20085;-82
2023/08/26 07:58:44;;;;;;;9.07;7.13;;;23.60;99.90;;;;;;5135942;27;20216;-81
2023/08/26 08:01:10;;;;;;;11.07;6.93;;;23.40;99.90;;;;;;5154287;27;20068;-83
2023/08/26 08:03:36;;;;;;;11.83;7.80;;;23.20;99.90;;;;;;5154259;27;20047;-83
2023/08/26 08:06:02;;;;;;;9.67;7.43;;;23.00;99.90;;;;;;5118570;27;20078;-83
2023/08/26 08:08:27;;;;;;;8.50;6.67;;;23.00;99.90;;;;;;5153661;27;20559;-83
2023/08/26 08:10:53;;;;;;;11.70;7.20;;;22.80;99.90;;;;;;5153583;27;20050;-85
2023/08/26 08:13:19;;;;;;;11.47;7.37;;;22.60;99.90;;;;;;5155281;27;20078;-83
2023/08/26 08:15:44;;;;;;;8.93;5.93;;;22.30;99.90;;;;;;5158046;27;20479;-84
2023/08/26 08:18:10;;;;;;;10.23;6.57;;;21.90;99.90;;;;;;5158110;27;20042;-82
2023/08/26 08:20:36;;;;;;;9.93;7.07;;;21.60;99.90;;;;;;5139398;27;20042;-83
2023/08/26 08:23:03;;;;;;;9.73;6.83;;;21.40;99.90;;;;;;5157381;27;20050;-82
2023/08/26 08:25:29;;;;;;;10.80;6.77;;;21.20;99.90;;;;;;5157955;27;20049;-86
2023/08/26 08:27:55;;;;;;;11.57;6.43;;;21.00;99.90;;;;;;5157697;27;20043;-85
2023/08/26 08:30:20;;;;;;;9.90;5.73;;;20.90;99.90;;;;;;5139461;27;20047;-85
2023/08/26 08:32:46;;;;;;;8.17;5.43;;;20.80;99.90;;;;;;5139358;27;20043;-83
2023/08/26 08:35:12;;;;;;;9.20;5.00;;;20.80;99.90;;;;;;5157653;27;20104;-86
2023/08/26 08:37:38;;;;;;;10.63;5.10;;;20.80;99.90;;;;;;5157962;27;20126;-86
2023/08/26 08:40:05;;;;;;;8.77;5.07;;;20.80;99.90;;;;;;5157422;27;20472;-84
2023/08/26 08:42:34;;;;;;;8.23;3.77;;;20.70;99.90;;;;;;5157783;27;20046;-85
2023/08/26 08:45:03;;;;;;;7.77;3.30;;;20.70;99.90;;;;;;5157491;27;20038;-85
2023/08/26 08:47:30;;;;;;;7.03;2.73;;;20.60;99.90;;;;;;5140053;27;20043;-87
2023/08/26 08:49:57;;;;;;;6.97;3.17;;;20.50;99.90;;;;;;5139087;27;20043;-84
2023/08/26 08:52:25;;;;;;;5.67;2.40;;;20.30;99.90;;;;;;5121875;27;20046;-87
2023/08/26 08:54:51;;;;;;;4.33;2.40;;;20.30;99.90;;;;;;5157357;27;20096;-84
2023/08/26 08:57:23;;;;;;;4.83;2.53;;;20.10;99.90;;;;;;5157548;27;20042;-84
2023/08/26 08:59:49;;;;;;;5.97;2.93;;;20.00;99.90;;;;;;5157697;27;20394;-83
2023/08/26 09:02:15;;;;;;;6.80;2.87;;;20.00;99.90;;;;;;5156794;27;20051;-85
2023/08/26 09:04:44;;;;;;;5.73;2.60;;;20.00;99.90;;;;;;5157393;27;20050;-86
2023/08/26 09:07:12;;;;;;;7.77;3.10;;;20.00;99.90;;;;;;5157212;27;20058;-84
2023/08/26 09:09:38;;;;;;;6.87;3.37;;;20.00;99.90;;;;;;5160536;27;20046;-83
2023/08/26 09:12:07;;;;;;;5.07;2.70;;;20.00;99.90;;;;;;5121379;27;20610;-82
2023/08/26 09:14:33;;;;;;;5.97;2.47;;;19.90;99.90;;;;;;5138703;27;20126;-73
2023/08/26 09:17:15;;;;;;;6.93;2.60;;;19.90;99.90;;;;;;5156624;27;20562;-70
2023/08/26 09:19:54;;;;;;;6.07;2.83;;;19.90;99.90;;;;;;5156441;27;20042;-70
2023/08/26 09:22:23;;;;;;;5.93;2.10;;;19.80;99.90;;;;;;5136972;27;20126;-71
2023/08/26 09:24:52;;;;;;;6.67;2.10;;;19.60;99.90;;;;;;5152634;27;20047;-71
2023/08/26 09:27:18;;;;;;;6.47;2.37;;;19.50;99.90;;;;;;5155913;27;20132;-71
2023/08/26 09:29:44;;;;;;;5.30;1.67;;;19.40;99.90;;;;;;5156167;27;20510;-71
2023/08/26 09:32:10;;;;;;;5.23;1.77;;;19.30;99.90;;;;;;5156261;27;20046;-70
2023/08/26 09:34:37;;;;;;;5.63;1.70;;;19.20;99.90;;;;;;5156201;27;20119;-71
2023/08/26 09:37:03;;;;;;;5.43;2.00;;;19.10;99.90;;;;;;5137641;27;20375;-73
2023/08/26 09:39:29;;;;;;;6.40;2.00;;;19.10;99.90;;;;;;5156517;27;20117;-72
2023/08/26 09:41:56;;;;;;;6.70;2.13;;;19.00;99.90;;;;;;5156376;27;20483;-72
2023/08/26 09:44:23;;;;;;;7.83;2.60;;;18.90;99.90;;;;;;5156311;27;20482;-72
2023/08/26 09:46:49;;;;;;;4.80;1.93;;;18.90;99.90;;;;;;5155946;27;20483;-71
2023/08/26 09:49:17;;;;;;;5.17;2.00;;;18.80;99.90;;;;;;5137777;27;20364;-73
2023/08/26 09:51:46;;;;;;;8.70;2.80;;;18.80;99.90;;;;;;5156186;27;20456;-73
2023/08/26 09:54:16;;;;;;;11.07;2.90;;;18.80;99.90;;;;;;5155915;27;20095;-72
2023/08/26 09:56:42;;;;;;;6.70;3.30;;;18.80;99.90;;;;;;5137891;27;20133;-71
2023/08/26 09:59:08;;;;;;;6.50;2.73;;;18.70;99.90;;;;;;5155931;27;20082;-74
2023/08/26 10:01:34;;;;;;;5.83;2.97;;;18.70;99.90;;;;;;5156709;27;20486;-83
2023/08/26 10:04:10;;;;;;;5.00;2.27;;;18.60;99.90;;;;;;5137533;27;20484;-73
2023/08/26 10:06:42;;;;;;;3.80;2.10;;;18.60;99.90;;;;;;5155902;27;20082;-73
2023/08/26 10:09:30;;;;;;;6.33;2.07;;;18.50;99.90;;;;;;5155262;27;20057;-73
2023/08/26 10:12:00;;;;;;;4.80;1.90;;;18.40;99.90;;;;;;5155863;27;20052;-79
2023/08/26 10:14:29;;;;;;;4.50;1.97;;;18.30;99.90;;;;;;5156258;27;20082;-81
2023/08/26 10:16:59;;;;;;;7.60;1.90;;;18.20;99.90;;;;;;5155808;27;20427;-72
2023/08/26 10:19:28;;;;;;;5.93;2.30;;;18.20;99.90;;;;;;5137686;27;20463;-71
2023/08/26 10:21:55;;;;;;;6.67;2.23;;;18.30;99.90;;;;;;5155744;27;20047;-71
2023/08/26 10:24:21;;;;;;;8.80;2.10;;;18.30;99.90;;;;;;5155342;27;20051;-71
2023/08/26 10:26:47;;;;;;;6.27;1.80;;;18.40;99.90;;;;;;5155572;27;20039;-70
2023/08/26 10:29:14;;;;;;;2.83;1.33;;;18.50;99.90;;;;;;5119842;27;20050;-71
2023/08/26 10:31:43;;;;;;;4.00;1.60;;;18.50;99.90;;;;;;5155570;27;20497;-71
2023/08/26 10:34:09;;;;;;;3.83;1.63;;;18.70;99.90;;;;;;5155202;27;20046;-71
2023/08/26 10:36:39;;;;;;;2.90;1.40;;;18.80;99.90;;;;;;5155203;27;20047;-71
2023/08/26 10:39:16;;;;;;;3.17;1.33;;;18.90;99.90;;;;;;5155139;27;20038;-71
2023/08/26 10:42:15;;;;;;;3.13;1.70;;;19.10;99.90;;;;;;5155623;27;20465;-78
2023/08/26 10:44:43;;;;;;;4.50;1.70;;;19.20;99.90;;;;;;5155374;27;20049;-80
2023/08/26 10:47:10;;;;;;;5.00;2.30;;;19.30;99.90;;;;;;5155001;27;20095;-82
2023/08/26 10:49:36;;;;;;;5.40;2.30;;;19.40;99.90;;;;;;5137180;27;20435;-82
2023/08/26 10:52:29;;;;;;;4.87;2.70;;;19.40;99.90;;;;;;5154942;27;20498;-83
2023/08/26 10:54:55;;;;;;;5.77;3.03;;;19.40;99.90;;;;;;5155346;27;20042;-83
2023/08/26 10:57:20;;;;;;;5.30;2.83;;;19.30;99.90;;;;;;5155034;27;20047;-82
2023/08/26 10:59:47;;;;;;;5.40;3.53;;;19.30;99.90;;;;;;5155356;27;20134;-82
2023/08/26 11:02:13;;;;;;;8.33;3.87;;;19.30;99.90;;;;;;5155054;27;20057;-80
2023/08/26 11:04:43;;;;;;;5.27;3.27;;;19.40;99.90;;;;;;5155147;27;20047;-81
2023/08/26 11:07:17;;;;;;;6.17;3.63;;;19.50;99.90;;;;;;5118847;27;20047;-79
2023/08/26 11:09:43;;;;;;;7.90;4.00;;;19.50;99.90;;;;;;5136897;27;20440;-77
2023/08/26 11:12:27;;;;;;;5.77;3.80;;;19.60;99.90;;;;;;5136574;27;20046;-78
2023/08/26 11:15:01;;;;;;;6.07;4.20;;;19.60;99.90;;;;;;5154967;27;20064;-72
2023/08/26 11:17:28;;;;;;;;;;;19.70;99.90;;;;;;5154742;27;20061;-80
2023/08/26 11:19:54;;;;;;;5.80;1.93;;;19.70;99.90;;;;;;5152970;27;19925;-80
2023/08/26 11:22:25;;;;;;;2.73;1.50;;;19.70;99.90;;;;;;5152825;27;20045;-80
2023/08/26 11:24:51;;;;;;;2.93;1.63;;;19.70;99.90;;;;;;5153762;27;20051;-79
2023/08/26 11:27:16;;;;;;;7.43;1.97;;;19.80;99.90;;;;;;5134832;27;20042;-79
2023/08/26 11:29:43;;;;;;;3.20;1.40;;;19.80;99.90;;;;;;5118099;27;20062;-79
2023/08/26 11:32:09;;;;;;;5.30;1.80;;;19.90;99.90;;;;;;5153261;27;20056;-77
2023/08/26 11:34:34;;;;;;;4.20;1.47;;;20.00;99.90;;;;;;5153451;27;20129;-79
2023/08/26 11:37:00;;;;;;;3.60;1.40;;;20.00;99.90;;;;;;5154427;27;20043;-80
2023/08/26 11:39:36;;;;;;;4.90;2.23;;;20.10;99.90;;;;;;5154530;27;20050;-79
2023/08/26 11:42:15;;;;;;;4.30;1.70;;;20.00;99.90;;;;;;5136577;27;20528;-79
2023/08/26 11:44:50;;;;;;;2.93;1.43;;;19.90;99.90;;;;;;5154856;27;20102;-79
2023/08/26 11:47:15;;;;;;;3.20;1.27;;;19.90;99.90;;;;;;5154336;27;20133;-79
2023/08/26 11:49:43;;;;;;;6.60;1.83;;;19.80;99.90;;;;;;5157962;27;20078;-80
2023/08/26 11:52:09;;;;;;;4.20;1.40;;;19.80;99.90;;;;;;5158810;27;20050;-80
2023/08/26 11:54:35;;;;;;;3.63;1.63;;;19.80;99.90;;;;;;5158568;27;20043;-80
2023/08/26 11:57:02;;;;;;;3.73;1.60;;;19.70;99.90;;;;;;5158737;27;20046;-79
2023/08/26 11:59:38;;;;;;;3.40;1.50;;;19.70;99.90;;;;;;5123026;27;20050;-79
2023/08/26 12:02:27;;;;;;;2.87;1.50;;;19.70;99.90;;;;;;5159096;27;20050;-79
2023/08/26 12:04:59;;;;;;;4.37;2.00;;;19.70;99.90;;;;;;5140078;27;20068;-79
2023/08/26 12:07:31;;;;;;;4.93;2.03;;;19.70;99.90;;;;;;5157951;27;20065;-79
2023/08/26 12:09:57;;;;;;;3.93;1.83;;;19.70;99.90;;;;;;5158504;27;20046;-82
2023/08/26 12:12:24;;;;;;;4.97;1.60;;;19.80;99.90;;;;;;5139469;27;20054;-76
2023/08/26 12:14:50;;;;;;;2.90;1.40;;;19.90;99.90;;;;;;5158039;27;20054;-70
2023/08/26 12:17:17;;;;;;;3.50;1.40;;;20.10;99.90;;;;;;5157845;27;20038;-70
2023/08/26 12:19:43;;;;;;;3.03;1.47;;;20.20;99.90;;;;;;5157695;27;20042;-70
2023/08/26 12:22:10;;;;;;;4.10;1.63;;;20.40;99.90;;;;;;5157531;27;20382;-70
2023/08/26 12:24:39;;;;;;;4.53;1.70;;;20.50;99.90;;;;;;5157183;27;20047;-70
2023/08/26 12:27:09;;;;;;;4.17;1.43;;;20.60;99.90;;;;;;5119858;27;20043;-71
2023/08/26 12:29:36;;;;;;;3.20;1.40;;;20.70;99.90;;;;;;5157152;27;20153;-70
2023/08/26 12:32:04;;;;;;;4.37;1.40;;;20.70;99.90;;;;;;5139122;27;20051;-71
2023/08/26 12:34:30;;;;;;;3.57;1.40;;;20.80;99.90;;;;;;5157081;27;20066;-71
2023/08/26 12:36:57;;;;;;;3.17;1.33;;;20.90;99.90;;;;;;5118671;27;20042;-76
2023/08/26 12:39:25;;;;;;;4.47;1.50;;;20.90;99.90;;;;;;5136577;27;20099;-77
2023/08/26 12:41:52;;;;;;;3.73;1.60;;;20.70;99.90;;;;;;5118849;27;20047;-77
2023/08/26 12:44:18;;;;;;;4.03;1.70;;;20.60;99.90;;;;;;5136672;27;20511;-76